PWSweather.com
Personal Weather Stations
Station Observations
PENICUIKWS
PenicuikGB

PenicuikGB

Lat: 55.830932, Lon: -3.224533000000065

Elevation: 166

Station Type: Fine Offset

http://weather.penicuik.org

High Low Average
Temperature 72.5°F22.5°C 47.7°F8.7°C 57.8°F14.3°C
Dew Point 57.3°F14.1°C 47.4°F8.6°C 52.5°F11.4°C
Winds 7.9 mph 12.7 kmh Calm Calm 2.0 mph SSE3.2 kmh SSE
Wind Gusts 17.4 mph28.0 kmh -- 4.0 mph6.4 kmh
Humidity 99% 50% 85%
Pressure 29.80 in1009.1 mb 29.61 in1002.7 mb -
Precipitation 0.13 in3.3 mm - -
Hour Temp Dew Point Humidity Winds Wind Gusts Pressure Precip Precip Rate Daily Precip Total
12:00 AM 48.0°F8.9°C 47.8°F8.8°C 99% 0.2 mph S0.3 kmh S 0.7 mph1.1 kmh 29.61 in1002.7 mb 0.00 in0.0 mm 0.00 in0.0 mm 0.00 in0.0 mm
12:15 AM 47.7°F8.7°C 47.4°F8.6°C 99% 0.5 mph SW0.8 kmh SW 0.7 mph1.1 kmh 29.62 in1003.0 mb 0.00 in0.0 mm 0.00 in0.0 mm 0.00 in0.0 mm
12:30 AM 47.8°F8.8°C 47.6°F8.7°C 99% 0.1 mph S0.2 kmh S 0.7 mph1.1 kmh 29.62 in1003.0 mb 0.00 in0.0 mm 0.00 in0.0 mm 0.00 in0.0 mm
12:45 AM 48.0°F8.9°C 47.8°F8.8°C 99% Calm Calm -- 29.62 in1003.0 mb 0.00 in0.0 mm 0.00 in0.0 mm 0.00 in0.0 mm
01:00 AM 48.2°F9.0°C 47.9°F8.8°C 99% Calm Calm -- 29.62 in1003.0 mb 0.00 in0.0 mm 0.00 in0.0 mm 0.00 in0.0 mm
01:15 AM 48.7°F9.3°C 48.5°F9.2°C 99% 0.5 mph S0.8 kmh S 1.6 mph2.6 kmh 29.62 in1003.0 mb 0.00 in0.0 mm 0.00 in0.0 mm 0.00 in0.0 mm
01:30 AM 49.1°F9.5°C 48.8°F9.3°C 99% 0.2 mph SW0.3 kmh SW 0.7 mph1.1 kmh 29.62 in1003.0 mb 0.00 in0.0 mm 0.00 in0.0 mm 0.00 in0.0 mm
01:45 AM 49.5°F9.7°C 49.2°F9.6°C 99% 0.5 mph SE0.8 kmh SE 2.2 mph3.5 kmh 29.62 in1003.0 mb 0.00 in0.0 mm 0.00 in0.0 mm 0.00 in0.0 mm
02:00 AM 50.0°F10.0°C 49.7°F9.8°C 99% 0.2 mph S0.3 kmh S 1.6 mph2.6 kmh 29.62 in1003.0 mb 0.00 in0.0 mm 0.00 in0.0 mm 0.00 in0.0 mm
02:15 AM 50.2°F10.1°C 49.9°F9.9°C 99% 0.1 mph S0.2 kmh S 1.6 mph2.6 kmh 29.62 in1003.0 mb 0.01 in0.3 mm 0.04 in1.0 mm 0.01 in0.3 mm
02:30 AM 50.2°F10.1°C 49.9°F9.9°C 99% 0.2 mph SW0.3 kmh SW 1.6 mph2.6 kmh 29.62 in1003.0 mb 0.01 in0.3 mm 0.00 in0.0 mm 0.01 in0.3 mm
02:45 AM 50.2°F10.1°C 49.9°F9.9°C 99% Calm Calm -- 29.61 in1002.7 mb 0.01 in0.3 mm 0.00 in0.0 mm 0.01 in0.3 mm
03:00 AM 50.2°F10.1°C 49.9°F9.9°C 99% Calm Calm -- 29.62 in1003.0 mb 0.01 in0.3 mm 0.00 in0.0 mm 0.01 in0.3 mm
03:15 AM 50.4°F10.2°C 50.1°F10.1°C 99% Calm Calm -- 29.63 in1003.4 mb 0.00 in0.0 mm 0.00 in0.0 mm 0.01 in0.3 mm
03:30 AM 50.2°F10.1°C 49.9°F9.9°C 99% Calm Calm -- 29.62 in1003.0 mb 0.00 in0.0 mm 0.00 in0.0 mm 0.01 in0.3 mm
04:00 AM 48.7°F9.3°C 48.5°F9.2°C 99% Calm Calm 0.7 mph1.1 kmh 29.64 in1003.7 mb 0.00 in0.0 mm 0.00 in0.0 mm 0.01 in0.3 mm
04:15 AM 48.0°F8.9°C 47.8°F8.8°C 99% 0.2 mph N0.3 kmh N 1.6 mph2.6 kmh 29.65 in1004.1 mb 0.00 in0.0 mm 0.00 in0.0 mm 0.01 in0.3 mm
04:30 AM 47.8°F8.8°C 47.6°F8.7°C 99% 0.3 mph NE0.5 kmh NE 1.6 mph2.6 kmh 29.65 in1004.1 mb 0.00 in0.0 mm 0.00 in0.0 mm 0.01 in0.3 mm
04:45 AM 47.8°F8.8°C 47.6°F8.7°C 99% 0.1 mph NE0.2 kmh NE 0.7 mph1.1 kmh 29.65 in1004.1 mb 0.00 in0.0 mm 0.00 in0.0 mm 0.01 in0.3 mm
05:00 AM 48.2°F9.0°C 47.9°F8.8°C 99% 0.1 mph SW0.2 kmh SW 0.7 mph1.1 kmh 29.66 in1004.4 mb 0.00 in0.0 mm 0.00 in0.0 mm 0.01 in0.3 mm
05:15 AM 48.6°F9.2°C 48.3°F9.1°C 99% Calm Calm -- 29.66 in1004.4 mb 0.00 in0.0 mm 0.00 in0.0 mm 0.01 in0.3 mm
05:30 AM 49.3°F9.6°C 49.0°F9.4°C 99% Calm Calm 0.7 mph1.1 kmh 29.67 in1004.7 mb 0.00 in0.0 mm 0.00 in0.0 mm 0.01 in0.3 mm
05:45 AM 50.0°F10.0°C 49.7°F9.8°C 99% 0.4 mph S0.6 kmh S 1.6 mph2.6 kmh 29.67 in1004.7 mb 0.00 in0.0 mm 0.00 in0.0 mm 0.01 in0.3 mm
06:00 AM 51.1°F10.6°C 50.8°F10.4°C 99% Calm Calm -- 29.67 in1004.7 mb 0.00 in0.0 mm 0.00 in0.0 mm 0.01 in0.3 mm
06:30 AM 52.5°F11.4°C 52.0°F11.1°C 98% 0.3 mph N0.5 kmh N 1.6 mph2.6 kmh 29.69 in1005.4 mb 0.00 in0.0 mm 0.00 in0.0 mm 0.01 in0.3 mm
06:45 AM 54.7°F12.6°C 53.9°F12.2°C 97% 1.0 mph SSE1.6 kmh SSE 3.8 mph6.1 kmh 29.68 in1005.1 mb 0.00 in0.0 mm 0.00 in0.0 mm 0.01 in0.3 mm
07:00 AM 56.5°F13.6°C 56.2°F13.4°C 99% 3.5 mph ESE5.6 kmh ESE 6.9 mph11.1 kmh 29.68 in1005.1 mb 0.00 in0.0 mm 0.00 in0.0 mm 0.01 in0.3 mm
07:15 AM 58.1°F14.5°C 57.0°F13.9°C 96% 3.3 mph SE5.3 kmh SE 5.4 mph8.7 kmh 29.69 in1005.4 mb 0.00 in0.0 mm 0.00 in0.0 mm 0.01 in0.3 mm
07:30 AM 59.0°F15.0°C 56.4°F13.6°C 91% 2.8 mph ESE4.5 kmh ESE 5.4 mph8.7 kmh 29.69 in1005.4 mb 0.00 in0.0 mm 0.00 in0.0 mm 0.01 in0.3 mm
07:45 AM 58.8°F14.9°C 55.3°F12.9°C 88% 4.7 mph WSW7.6 kmh WSW 7.6 mph12.2 kmh 29.70 in1005.8 mb 0.00 in0.0 mm 0.00 in0.0 mm 0.01 in0.3 mm
08:00 AM 59.0°F15.0°C 54.5°F12.5°C 85% 5.9 mph S9.5 kmh S 9.2 mph14.8 kmh 29.70 in1005.8 mb 0.00 in0.0 mm 0.00 in0.0 mm 0.01 in0.3 mm
08:15 AM 63.3°F17.4°C 56.4°F13.6°C 78% 6.3 mph SE10.1 kmh SE 13.6 mph21.9 kmh 29.70 in1005.8 mb 0.00 in0.0 mm 0.00 in0.0 mm 0.01 in0.3 mm
08:30 AM 66.6°F19.2°C 57.3°F14.1°C 72% 6.5 mph S10.5 kmh S 12.1 mph19.5 kmh 29.70 in1005.8 mb 0.00 in0.0 mm 0.00 in0.0 mm 0.01 in0.3 mm
08:45 AM 66.4°F19.1°C 55.1°F12.8°C 67% 7.1 mph SE11.4 kmh SE 12.1 mph19.5 kmh 29.70 in1005.8 mb 0.00 in0.0 mm 0.00 in0.0 mm 0.01 in0.3 mm
09:00 AM 65.3°F18.5°C 54.9°F12.7°C 69% 6.6 mph SE10.6 kmh SE 9.8 mph15.8 kmh 29.70 in1005.8 mb 0.00 in0.0 mm 0.00 in0.0 mm 0.01 in0.3 mm
09:45 AM 69.3°F20.7°C 54.8°F12.7°C 60% 6.9 mph SSW11.1 kmh SSW 12.1 mph19.5 kmh 29.72 in1006.4 mb 0.00 in0.0 mm 0.00 in0.0 mm 0.01 in0.3 mm
10:00 AM 67.8°F19.9°C 54.8°F12.7°C 63% 5.8 mph SW9.3 kmh SW 11.4 mph18.3 kmh 29.72 in1006.4 mb 0.00 in0.0 mm 0.00 in0.0 mm 0.01 in0.3 mm
10:15 AM 67.5°F19.7°C 53.6°F12.0°C 61% 4.2 mph N6.8 kmh N 10.7 mph17.2 kmh 29.72 in1006.4 mb 0.00 in0.0 mm 0.00 in0.0 mm 0.01 in0.3 mm
10:30 AM 71.1°F21.7°C 55.1°F12.8°C 57% 5.6 mph SE9.0 kmh SE 13.6 mph21.9 kmh 29.72 in1006.4 mb 0.00 in0.0 mm 0.00 in0.0 mm 0.01 in0.3 mm
10:45 AM 72.5°F22.5°C 53.4°F11.9°C 51% 7.9 mph SSE12.7 kmh SSE 13.0 mph20.9 kmh 29.73 in1006.8 mb 0.00 in0.0 mm 0.00 in0.0 mm 0.01 in0.3 mm
11:00 AM 71.1°F21.7°C 51.5°F10.8°C 50% 5.6 mph ESE9.0 kmh ESE 10.7 mph17.2 kmh 29.73 in1006.8 mb 0.00 in0.0 mm 0.00 in0.0 mm 0.01 in0.3 mm
11:15 AM 69.4°F20.8°C 53.1°F11.7°C 56% 5.6 mph WSW9.0 kmh WSW 9.2 mph14.8 kmh 29.73 in1006.8 mb 0.00 in0.0 mm 0.00 in0.0 mm 0.01 in0.3 mm
11:30 AM 69.4°F20.8°C 53.1°F11.7°C 56% 5.4 mph WNW8.7 kmh WNW 17.4 mph28.0 kmh 29.73 in1006.8 mb 0.00 in0.0 mm 0.00 in0.0 mm 0.01 in0.3 mm
11:45 AM 68.2°F20.1°C 52.4°F11.3°C 57% 4.7 mph WSW7.6 kmh WSW 9.8 mph15.8 kmh 29.73 in1006.8 mb 0.00 in0.0 mm 0.00 in0.0 mm 0.01 in0.3 mm
12:00 PM 68.9°F20.5°C 54.0°F12.2°C 59% 3.1 mph E5.0 kmh E 6.0 mph9.7 kmh 29.73 in1006.8 mb 0.00 in0.0 mm 0.00 in0.0 mm 0.01 in0.3 mm
12:15 PM 68.9°F20.5°C 52.1°F11.2°C 55% 5.4 mph N8.7 kmh N 9.2 mph14.8 kmh 29.73 in1006.8 mb 0.00 in0.0 mm 0.00 in0.0 mm 0.01 in0.3 mm
12:30 PM 69.6°F20.9°C 54.2°F12.3°C 58% 3.4 mph SW5.5 kmh SW 9.8 mph15.8 kmh 29.74 in1007.1 mb 0.00 in0.0 mm 0.00 in0.0 mm 0.01 in0.3 mm
12:45 PM 70.5°F21.4°C 53.6°F12.0°C 55% 2.6 mph N4.2 kmh N 3.8 mph6.1 kmh 29.73 in1006.8 mb 0.00 in0.0 mm 0.00 in0.0 mm 0.01 in0.3 mm
01:00 PM 70.5°F21.4°C 54.1°F12.3°C 56% 2.9 mph SW4.7 kmh SW 5.4 mph8.7 kmh 29.75 in1007.5 mb 0.00 in0.0 mm 0.00 in0.0 mm 0.01 in0.3 mm
01:15 PM 68.5°F20.3°C 51.3°F10.7°C 54% 3.8 mph SW6.1 kmh SW 6.9 mph11.1 kmh 29.75 in1007.5 mb 0.00 in0.0 mm 0.00 in0.0 mm 0.01 in0.3 mm
01:30 PM 68.9°F20.5°C 52.1°F11.2°C 55% 3.7 mph WSW6.0 kmh WSW 7.6 mph12.2 kmh 29.75 in1007.5 mb 0.00 in0.0 mm 0.00 in0.0 mm 0.01 in0.3 mm
02:00 PM 64.4°F18.0°C 52.0°F11.1°C 64% 4.2 mph SW6.8 kmh SW 6.9 mph11.1 kmh 29.76 in1007.8 mb 0.00 in0.0 mm 0.00 in0.0 mm 0.01 in0.3 mm
02:15 PM 65.1°F18.4°C 53.9°F12.2°C 67% 2.2 mph ENE3.5 kmh ENE 3.8 mph6.1 kmh 29.76 in1007.8 mb 0.00 in0.0 mm 0.00 in0.0 mm 0.01 in0.3 mm
02:30 PM 65.5°F18.6°C 53.4°F11.9°C 65% 2.7 mph WNW4.3 kmh WNW 5.4 mph8.7 kmh 29.76 in1007.8 mb 0.00 in0.0 mm 0.00 in0.0 mm 0.01 in0.3 mm
02:45 PM 66.0°F18.9°C 53.9°F12.2°C 65% 3.0 mph SSE4.8 kmh SSE 7.6 mph12.2 kmh 29.76 in1007.8 mb 0.00 in0.0 mm 0.00 in0.0 mm 0.01 in0.3 mm
03:00 PM 66.4°F19.1°C 53.4°F11.9°C 63% 1.6 mph WSW2.6 kmh WSW 2.2 mph3.5 kmh 29.77 in1008.1 mb 0.00 in0.0 mm 0.00 in0.0 mm 0.01 in0.3 mm
03:15 PM 64.6°F18.1°C 53.0°F11.7°C 66% 1.9 mph SSE3.1 kmh SSE 3.1 mph5.0 kmh 29.78 in1008.5 mb 0.00 in0.0 mm 0.00 in0.0 mm 0.01 in0.3 mm
03:30 PM 62.1°F16.7°C 54.1°F12.3°C 75% 0.9 mph N1.4 kmh N 1.6 mph2.6 kmh 29.77 in1008.1 mb 0.01 in0.3 mm 0.04 in1.0 mm 0.02 in0.5 mm
03:45 PM 61.3°F16.3°C 55.1°F12.8°C 80% 0.4 mph N0.6 kmh N 1.6 mph2.6 kmh 29.76 in1007.8 mb 0.02 in0.5 mm 0.04 in1.0 mm 0.04 in1.0 mm
04:00 PM 61.3°F16.3°C 55.5°F13.1°C 81% 0.1 mph N0.2 kmh N 0.7 mph1.1 kmh 29.76 in1007.8 mb 0.04 in1.0 mm 0.03 in0.8 mm 0.05 in1.3 mm
04:15 PM 62.1°F16.7°C 55.8°F13.2°C 80% 0.5 mph N0.8 kmh N 2.2 mph3.5 kmh 29.75 in1007.5 mb 0.04 in1.0 mm 0.00 in0.0 mm 0.05 in1.3 mm
04:30 PM 61.7°F16.5°C 55.1°F12.8°C 79% 0.1 mph SSW0.2 kmh SSW 0.7 mph1.1 kmh 29.75 in1007.5 mb 0.02 in0.5 mm 0.00 in0.0 mm 0.05 in1.3 mm
04:45 PM 61.0°F16.1°C 55.1°F12.8°C 81% Calm Calm -- 29.75 in1007.5 mb 0.01 in0.3 mm 0.00 in0.0 mm 0.05 in1.3 mm
05:00 PM 60.4°F15.8°C 55.9°F13.3°C 85% Calm Calm -- 29.75 in1007.5 mb 0.01 in0.3 mm 0.00 in0.0 mm 0.06 in1.5 mm
05:15 PM 60.4°F15.8°C 56.6°F13.7°C 87% 0.5 mph NNW0.8 kmh NNW 1.6 mph2.6 kmh 29.75 in1007.5 mb 0.02 in0.5 mm 0.04 in1.0 mm 0.07 in1.8 mm
05:30 PM 59.9°F15.5°C 56.4°F13.6°C 88% 0.9 mph S1.4 kmh S 2.2 mph3.5 kmh 29.76 in1007.8 mb 0.02 in0.5 mm 0.00 in0.0 mm 0.07 in1.8 mm
05:45 PM 59.5°F15.3°C 56.3°F13.5°C 89% 0.1 mph WSW0.2 kmh WSW 0.7 mph1.1 kmh 29.77 in1008.1 mb 0.04 in1.0 mm 0.08 in2.0 mm 0.08 in2.0 mm
06:00 PM 59.0°F15.0°C 56.1°F13.4°C 90% 0.4 mph NW0.6 kmh NW 1.6 mph2.6 kmh 29.77 in1008.1 mb 0.04 in1.0 mm 0.00 in0.0 mm 0.09 in2.3 mm
06:15 PM 58.3°F14.6°C 56.0°F13.3°C 92% 1.0 mph SW1.6 kmh SW 1.6 mph2.6 kmh 29.77 in1008.1 mb 0.02 in0.5 mm 0.00 in0.0 mm 0.09 in2.3 mm
06:30 PM 58.3°F14.6°C 56.0°F13.3°C 92% 1.1 mph SSE1.8 kmh SSE 2.2 mph3.5 kmh 29.78 in1008.5 mb 0.04 in1.0 mm 0.08 in2.0 mm 0.11 in2.8 mm
07:00 PM 57.9°F14.4°C 55.9°F13.3°C 93% 0.1 mph SE0.2 kmh SE 1.6 mph2.6 kmh 29.77 in1008.1 mb 0.01 in0.3 mm 0.00 in0.0 mm 0.11 in2.8 mm
07:15 PM 57.4°F14.1°C 55.4°F13.0°C 93% Calm Calm -- 29.78 in1008.5 mb 0.00 in0.0 mm 0.00 in0.0 mm 0.11 in2.8 mm
07:30 PM 56.7°F13.7°C 55.0°F12.8°C 94% 0.4 mph WSW0.6 kmh WSW 1.6 mph2.6 kmh 29.79 in1008.8 mb 0.00 in0.0 mm 0.00 in0.0 mm 0.11 in2.8 mm
07:45 PM 56.1°F13.4°C 54.4°F12.4°C 94% 0.9 mph SE1.4 kmh SE 2.2 mph3.5 kmh 29.79 in1008.8 mb 0.01 in0.3 mm 0.04 in1.0 mm 0.12 in3.0 mm
08:00 PM 56.1°F13.4°C 54.4°F12.4°C 94% Calm Calm 0.7 mph1.1 kmh 29.79 in1008.8 mb 0.02 in0.5 mm 0.01 in0.3 mm 0.13 in3.3 mm
08:15 PM 55.8°F13.2°C 54.4°F12.4°C 95% 0.3 mph SSE0.5 kmh SSE 0.7 mph1.1 kmh 29.79 in1008.8 mb 0.02 in0.5 mm 0.00 in0.0 mm 0.13 in3.3 mm
08:30 PM 55.2°F12.9°C 53.8°F12.1°C 95% Calm Calm -- 29.80 in1009.1 mb 0.02 in0.5 mm 0.00 in0.0 mm 0.13 in3.3 mm
08:45 PM 54.3°F12.4°C 52.9°F11.6°C 95% Calm Calm -- 29.79 in1008.8 mb 0.01 in0.3 mm 0.00 in0.0 mm 0.13 in3.3 mm
09:00 PM 53.8°F12.1°C 52.4°F11.3°C 95% 0.3 mph S0.5 kmh S 1.6 mph2.6 kmh 29.79 in1008.8 mb 0.00 in0.0 mm 0.00 in0.0 mm 0.13 in3.3 mm
09:15 PM 52.9°F11.6°C 51.8°F11.0°C 96% Calm Calm -- 29.79 in1008.8 mb 0.00 in0.0 mm 0.00 in0.0 mm 0.13 in3.3 mm
09:30 PM 52.5°F11.4°C 51.7°F10.9°C 97% Calm Calm -- 29.80 in1009.1 mb 0.00 in0.0 mm 0.00 in0.0 mm 0.13 in3.3 mm
09:45 PM 52.2°F11.2°C 51.3°F10.7°C 97% Calm Calm -- 29.80 in1009.1 mb 0.00 in0.0 mm 0.00 in0.0 mm 0.13 in3.3 mm
10:00 PM 51.3°F10.7°C 50.7°F10.4°C 98% Calm Calm 0.7 mph1.1 kmh 29.80 in1009.1 mb 0.00 in0.0 mm 0.00 in0.0 mm 0.13 in3.3 mm
10:15 PM 51.3°F10.7°C 50.7°F10.4°C 98% 0.2 mph WNW0.3 kmh WNW 0.7 mph1.1 kmh 29.80 in1009.1 mb 0.00 in0.0 mm 0.00 in0.0 mm 0.13 in3.3 mm
10:30 PM 51.1°F10.6°C 50.8°F10.4°C 99% 0.4 mph SW0.6 kmh SW 0.7 mph1.1 kmh 29.80 in1009.1 mb 0.00 in0.0 mm 0.00 in0.0 mm 0.13 in3.3 mm
10:45 PM 51.1°F10.6°C 50.8°F10.4°C 99% 0.2 mph NW0.3 kmh NW 0.7 mph1.1 kmh 29.80 in1009.1 mb 0.00 in0.0 mm 0.00 in0.0 mm 0.13 in3.3 mm
11:00 PM 51.1°F10.6°C 50.8°F10.4°C 99% 0.3 mph SW0.5 kmh SW 1.6 mph2.6 kmh 29.80 in1009.1 mb 0.00 in0.0 mm 0.00 in0.0 mm 0.12 in3.0 mm
11:30 PM 50.2°F10.1°C 49.9°F9.9°C 99% Calm Calm -- 29.80 in1009.1 mb 0.00 in0.0 mm 0.00 in0.0 mm 0.12 in3.0 mm
11:45 PM 49.6°F9.8°C 49.4°F9.7°C 99% Calm Calm -- 29.80 in1009.1 mb 0.00 in0.0 mm 0.00 in0.0 mm 0.12 in3.0 mm